sensor_id;sensor_type;location;lat;lon;timestamp;P1;durP1;ratioP1;P2;durP2;ratioP2
5175;SDS011;2607;50.934;6.934;2023-11-21T00:00:09;5.57;;;5.03;;
5175;SDS011;2607;50.934;6.934;2023-11-21T00:02:37;7.90;;;5.93;;
5175;SDS011;2607;50.934;6.934;2023-11-21T00:05:05;10.53;;;6.30;;
5175;SDS011;2607;50.934;6.934;2023-11-21T00:07:33;8.37;;;5.90;;
5175;SDS011;2607;50.934;6.934;2023-11-21T00:09:58;8.10;;;6.00;;
5175;SDS011;2607;50.934;6.934;2023-11-21T00:12:24;7.60;;;6.40;;
5175;SDS011;2607;50.934;6.934;2023-11-21T00:14:49;7.63;;;6.00;;
5175;SDS011;2607;50.934;6.934;2023-11-21T00:17:16;7.60;;;6.50;;
5175;SDS011;2607;50.934;6.934;2023-11-21T00:19:42;8.07;;;6.10;;
5175;SDS011;2607;50.934;6.934;2023-11-21T00:22:08;10.83;;;6.57;;
5175;SDS011;2607;50.934;6.934;2023-11-21T00:24:34;7.23;;;6.50;;
5175;SDS011;2607;50.934;6.934;2023-11-21T00:27:00;12.50;;;6.40;;
5175;SDS011;2607;50.934;6.934;2023-11-21T00:29:25;13.40;;;7.70;;
5175;SDS011;2607;50.934;6.934;2023-11-21T00:31:52;7.33;;;6.50;;
5175;SDS011;2607;50.934;6.934;2023-11-21T00:34:17;10.07;;;6.70;;
5175;SDS011;2607;50.934;6.934;2023-11-21T00:36:43;10.03;;;7.50;;
5175;SDS011;2607;50.934;6.934;2023-11-21T00:39:09;8.43;;;7.53;;
5175;SDS011;2607;50.934;6.934;2023-11-21T00:41:34;8.37;;;7.50;;
5175;SDS011;2607;50.934;6.934;2023-11-21T00:44:01;12.17;;;8.07;;
5175;SDS011;2607;50.934;6.934;2023-11-21T00:46:27;11.07;;;7.80;;
5175;SDS011;2607;50.934;6.934;2023-11-21T00:48:54;14.20;;;8.67;;
5175;SDS011;2607;50.934;6.934;2023-11-21T00:51:20;9.47;;;7.40;;
5175;SDS011;2607;50.934;6.934;2023-11-21T00:53:46;12.80;;;7.90;;
5175;SDS011;2607;50.934;6.934;2023-11-21T00:56:12;14.10;;;8.23;;
5175;SDS011;2607;50.934;6.934;2023-11-21T00:58:38;13.70;;;8.27;;
5175;SDS011;2607;50.934;6.934;2023-11-21T01:01:04;9.43;;;7.47;;
5175;SDS011;2607;50.934;6.934;2023-11-21T01:03:30;14.07;;;8.30;;
5175;SDS011;2607;50.934;6.934;2023-11-21T01:05:55;12.17;;;8.63;;
5175;SDS011;2607;50.934;6.934;2023-11-21T01:08:21;10.10;;;8.17;;
5175;SDS011;2607;50.934;6.934;2023-11-21T01:10:46;9.87;;;7.70;;
5175;SDS011;2607;50.934;6.934;2023-11-21T01:13:12;14.20;;;9.63;;
5175;SDS011;2607;50.934;6.934;2023-11-21T01:15:40;13.50;;;9.40;;
5175;SDS011;2607;50.934;6.934;2023-11-21T01:18:06;10.63;;;8.20;;
5175;SDS011;2607;50.934;6.934;2023-11-21T01:20:33;14.23;;;8.90;;
5175;SDS011;2607;50.934;6.934;2023-11-21T01:22:59;11.13;;;8.20;;
5175;SDS011;2607;50.934;6.934;2023-11-21T01:25:24;10.10;;;8.07;;
5175;SDS011;2607;50.934;6.934;2023-11-21T01:27:50;9.23;;;7.70;;
5175;SDS011;2607;50.934;6.934;2023-11-21T01:30:16;9.77;;;8.80;;
5175;SDS011;2607;50.934;6.934;2023-11-21T01:32:42;16.10;;;8.73;;
5175;SDS011;2607;50.934;6.934;2023-11-21T01:35:08;8.43;;;7.60;;
5175;SDS011;2607;50.934;6.934;2023-11-21T01:37:35;16.90;;;8.63;;
5175;SDS011;2607;50.934;6.934;2023-11-21T01:40:01;13.03;;;8.27;;
5175;SDS011;2607;50.934;6.934;2023-11-21T01:42:30;11.23;;;7.53;;
5175;SDS011;2607;50.934;6.934;2023-11-21T01:44:55;14.60;;;8.50;;
5175;SDS011;2607;50.934;6.934;2023-11-21T01:47:21;17.23;;;8.90;;
5175;SDS011;2607;50.934;6.934;2023-11-21T01:49:47;12.20;;;8.03;;
5175;SDS011;2607;50.934;6.934;2023-11-21T01:52:13;12.40;;;8.80;;
5175;SDS011;2607;50.934;6.934;2023-11-21T01:54:39;17.77;;;9.57;;
5175;SDS011;2607;50.934;6.934;2023-11-21T01:57:07;10.23;;;7.80;;
5175;SDS011;2607;50.934;6.934;2023-11-21T01:59:36;9.30;;;7.70;;
5175;SDS011;2607;50.934;6.934;2023-11-21T02:02:03;16.23;;;8.63;;
5175;SDS011;2607;50.934;6.934;2023-11-21T02:04:31;12.10;;;8.53;;
5175;SDS011;2607;50.934;6.934;2023-11-21T02:06:57;12.60;;;8.90;;
5175;SDS011;2607;50.934;6.934;2023-11-21T02:09:24;13.90;;;8.67;;
5175;SDS011;2607;50.934;6.934;2023-11-21T02:11:54;17.43;;;9.50;;
5175;SDS011;2607;50.934;6.934;2023-11-21T02:14:20;9.30;;;7.87;;
5175;SDS011;2607;50.934;6.934;2023-11-21T02:16:50;12.57;;;8.33;;
5175;SDS011;2607;50.934;6.934;2023-11-21T02:19:20;13.07;;;8.40;;
5175;SDS011;2607;50.934;6.934;2023-11-21T02:21:54;11.60;;;7.57;;
5175;SDS011;2607;50.934;6.934;2023-11-21T02:24:25;14.77;;;8.57;;
5175;SDS011;2607;50.934;6.934;2023-11-21T02:26:52;11.73;;;9.60;;
5175;SDS011;2607;50.934;6.934;2023-11-21T02:29:18;12.90;;;9.70;;
5175;SDS011;2607;50.934;6.934;2023-11-21T02:31:47;12.53;;;8.83;;
5175;SDS011;2607;50.934;6.934;2023-11-21T02:34:15;18.80;;;9.40;;
5175;SDS011;2607;50.934;6.934;2023-11-21T02:36:42;15.77;;;10.30;;
5175;SDS011;2607;50.934;6.934;2023-11-21T02:39:09;17.70;;;11.13;;
5175;SDS011;2607;50.934;6.934;2023-11-21T02:41:36;18.07;;;11.70;;
5175;SDS011;2607;50.934;6.934;2023-11-21T02:44:05;16.83;;;11.37;;
5175;SDS011;2607;50.934;6.934;2023-11-21T02:46:32;14.00;;;10.77;;
5175;SDS011;2607;50.934;6.934;2023-11-21T02:49:05;13.53;;;10.50;;
5175;SDS011;2607;50.934;6.934;2023-11-21T02:51:35;17.83;;;11.67;;
5175;SDS011;2607;50.934;6.934;2023-11-21T02:54:01;18.43;;;10.30;;
5175;SDS011;2607;50.934;6.934;2023-11-21T02:56:30;19.20;;;11.70;;
5175;SDS011;2607;50.934;6.934;2023-11-21T02:58:56;18.20;;;10.47;;
5175;SDS011;2607;50.934;6.934;2023-11-21T03:01:22;17.70;;;11.43;;
5175;SDS011;2607;50.934;6.934;2023-11-21T03:03:49;20.07;;;10.67;;
5175;SDS011;2607;50.934;6.934;2023-11-21T03:06:16;14.47;;;10.17;;
5175;SDS011;2607;50.934;6.934;2023-11-21T03:08:45;17.63;;;10.23;;
5175;SDS011;2607;50.934;6.934;2023-11-21T03:11:10;19.30;;;10.40;;
5175;SDS011;2607;50.934;6.934;2023-11-21T03:13:38;19.70;;;10.67;;
5175;SDS011;2607;50.934;6.934;2023-11-21T03:16:09;15.80;;;10.77;;
5175;SDS011;2607;50.934;6.934;2023-11-21T03:18:36;11.10;;;9.77;;
5175;SDS011;2607;50.934;6.934;2023-11-21T03:21:02;18.20;;;10.60;;
5175;SDS011;2607;50.934;6.934;2023-11-21T03:23:28;13.17;;;9.67;;
5175;SDS011;2607;50.934;6.934;2023-11-21T03:25:54;18.50;;;10.97;;
5175;SDS011;2607;50.934;6.934;2023-11-21T03:28:19;17.27;;;10.83;;
5175;SDS011;2607;50.934;6.934;2023-11-21T03:30:45;19.63;;;11.30;;
5175;SDS011;2607;50.934;6.934;2023-11-21T03:33:10;26.43;;;11.70;;
5175;SDS011;2607;50.934;6.934;2023-11-21T03:35:36;15.13;;;11.37;;
5175;SDS011;2607;50.934;6.934;2023-11-21T03:38:01;16.27;;;10.90;;
5175;SDS011;2607;50.934;6.934;2023-11-21T03:40:27;22.83;;;12.20;;
5175;SDS011;2607;50.934;6.934;2023-11-21T03:42:52;18.00;;;11.10;;
5175;SDS011;2607;50.934;6.934;2023-11-21T03:45:18;23.73;;;11.90;;
5175;SDS011;2607;50.934;6.934;2023-11-21T03:47:43;19.47;;;11.37;;
5175;SDS011;2607;50.934;6.934;2023-11-21T03:50:09;17.90;;;11.90;;
5175;SDS011;2607;50.934;6.934;2023-11-21T03:52:35;22.17;;;12.50;;
5175;SDS011;2607;50.934;6.934;2023-11-21T03:55:01;21.57;;;13.20;;
5175;SDS011;2607;50.934;6.934;2023-11-21T03:57:27;18.13;;;12.93;;
5175;SDS011;2607;50.934;6.934;2023-11-21T03:59:53;22.70;;;12.43;;
5175;SDS011;2607;50.934;6.934;2023-11-21T04:02:18;23.70;;;13.83;;
5175;SDS011;2607;50.934;6.934;2023-11-21T04:04:44;17.53;;;11.10;;
5175;SDS011;2607;50.934;6.934;2023-11-21T04:07:10;29.50;;;17.20;;
5175;SDS011;2607;50.934;6.934;2023-11-21T04:09:36;17.83;;;12.13;;
5175;SDS011;2607;50.934;6.934;2023-11-21T04:12:02;19.70;;;12.67;;
5175;SDS011;2607;50.934;6.934;2023-11-21T04:14:27;17.37;;;12.63;;
5175;SDS011;2607;50.934;6.934;2023-11-21T04:16:53;16.17;;;12.60;;
5175;SDS011;2607;50.934;6.934;2023-11-21T04:19:19;21.20;;;13.47;;
5175;SDS011;2607;50.934;6.934;2023-11-21T04:21:45;21.03;;;12.40;;
5175;SDS011;2607;50.934;6.934;2023-11-21T04:24:11;19.27;;;12.03;;
5175;SDS011;2607;50.934;6.934;2023-11-21T04:26:36;15.97;;;11.30;;
5175;SDS011;2607;50.934;6.934;2023-11-21T04:29:02;17.00;;;11.10;;
5175;SDS011;2607;50.934;6.934;2023-11-21T04:31:29;21.03;;;12.30;;
5175;SDS011;2607;50.934;6.934;2023-11-21T04:33:55;17.80;;;12.20;;
5175;SDS011;2607;50.934;6.934;2023-11-21T04:36:20;24.33;;;13.27;;
5175;SDS011;2607;50.934;6.934;2023-11-21T04:38:46;21.40;;;12.33;;
5175;SDS011;2607;50.934;6.934;2023-11-21T04:41:11;21.70;;;13.20;;
5175;SDS011;2607;50.934;6.934;2023-11-21T04:43:38;21.37;;;12.43;;
5175;SDS011;2607;50.934;6.934;2023-11-21T04:46:04;20.53;;;11.50;;
5175;SDS011;2607;50.934;6.934;2023-11-21T04:48:29;23.07;;;12.20;;
5175;SDS011;2607;50.934;6.934;2023-11-21T04:50:55;26.30;;;12.60;;
5175;SDS011;2607;50.934;6.934;2023-11-21T04:53:21;16.47;;;12.00;;
5175;SDS011;2607;50.934;6.934;2023-11-21T04:55:46;19.77;;;11.00;;
5175;SDS011;2607;50.934;6.934;2023-11-21T04:58:13;20.20;;;11.50;;
5175;SDS011;2607;50.934;6.934;2023-11-21T05:00:39;19.70;;;11.87;;
5175;SDS011;2607;50.934;6.934;2023-11-21T05:03:04;19.27;;;13.17;;
5175;SDS011;2607;50.934;6.934;2023-11-21T05:05:32;21.57;;;13.17;;
5175;SDS011;2607;50.934;6.934;2023-11-21T05:07:58;22.73;;;12.87;;
5175;SDS011;2607;50.934;6.934;2023-11-21T05:10:24;23.20;;;13.57;;
5175;SDS011;2607;50.934;6.934;2023-11-21T05:12:50;21.00;;;13.67;;
5175;SDS011;2607;50.934;6.934;2023-11-21T05:15:16;21.80;;;12.60;;
5175;SDS011;2607;50.934;6.934;2023-11-21T05:17:45;22.57;;;13.23;;
5175;SDS011;2607;50.934;6.934;2023-11-21T05:20:13;20.37;;;12.30;;
5175;SDS011;2607;50.934;6.934;2023-11-21T05:22:42;20.20;;;12.33;;
5175;SDS011;2607;50.934;6.934;2023-11-21T05:25:08;20.80;;;12.43;;
5175;SDS011;2607;50.934;6.934;2023-11-21T05:27:34;16.33;;;10.23;;
5175;SDS011;2607;50.934;6.934;2023-11-21T05:30:03;16.73;;;11.10;;
5175;SDS011;2607;50.934;6.934;2023-11-21T05:32:39;30.03;;;12.60;;
5175;SDS011;2607;50.934;6.934;2023-11-21T05:35:07;21.53;;;11.47;;
5175;SDS011;2607;50.934;6.934;2023-11-21T05:37:37;19.93;;;11.20;;
5175;SDS011;2607;50.934;6.934;2023-11-21T05:40:05;22.20;;;11.60;;
5175;SDS011;2607;50.934;6.934;2023-11-21T05:42:32;20.80;;;12.40;;
5175;SDS011;2607;50.934;6.934;2023-11-21T05:44:58;19.33;;;11.07;;
5175;SDS011;2607;50.934;6.934;2023-11-21T05:47:24;21.50;;;12.77;;
5175;SDS011;2607;50.934;6.934;2023-11-21T05:49:51;24.70;;;10.67;;
5175;SDS011;2607;50.934;6.934;2023-11-21T05:52:17;19.77;;;11.50;;
5175;SDS011;2607;50.934;6.934;2023-11-21T05:54:43;21.17;;;11.77;;
5175;SDS011;2607;50.934;6.934;2023-11-21T05:57:09;22.50;;;13.30;;
5175;SDS011;2607;50.934;6.934;2023-11-21T05:59:34;19.37;;;11.90;;
5175;SDS011;2607;50.934;6.934;2023-11-21T06:02:00;18.70;;;11.90;;
5175;SDS011;2607;50.934;6.934;2023-11-21T06:04:25;18.37;;;11.47;;
5175;SDS011;2607;50.934;6.934;2023-11-21T06:06:51;27.83;;;12.50;;
5175;SDS011;2607;50.934;6.934;2023-11-21T06:09:17;17.73;;;11.50;;
5175;SDS011;2607;50.934;6.934;2023-11-21T06:11:44;15.33;;;10.70;;
5175;SDS011;2607;50.934;6.934;2023-11-21T06:14:09;17.40;;;10.63;;
5175;SDS011;2607;50.934;6.934;2023-11-21T06:16:36;14.63;;;11.90;;
5175;SDS011;2607;50.934;6.934;2023-11-21T06:19:01;20.00;;;11.30;;
5175;SDS011;2607;50.934;6.934;2023-11-21T06:21:27;16.20;;;10.80;;
5175;SDS011;2607;50.934;6.934;2023-11-21T06:23:52;12.90;;;9.83;;
5175;SDS011;2607;50.934;6.934;2023-11-21T06:26:18;19.23;;;10.87;;
5175;SDS011;2607;50.934;6.934;2023-11-21T06:28:43;17.30;;;10.40;;
5175;SDS011;2607;50.934;6.934;2023-11-21T06:31:10;16.80;;;10.30;;
5175;SDS011;2607;50.934;6.934;2023-11-21T06:33:35;17.70;;;10.63;;
5175;SDS011;2607;50.934;6.934;2023-11-21T06:36:01;22.40;;;10.20;;
5175;SDS011;2607;50.934;6.934;2023-11-21T06:38:27;15.83;;;10.60;;
5175;SDS011;2607;50.934;6.934;2023-11-21T06:40:55;19.60;;;10.80;;
5175;SDS011;2607;50.934;6.934;2023-11-21T06:43:21;16.63;;;10.70;;
5175;SDS011;2607;50.934;6.934;2023-11-21T06:45:46;15.70;;;10.50;;
5175;SDS011;2607;50.934;6.934;2023-11-21T06:48:12;16.87;;;11.53;;
5175;SDS011;2607;50.934;6.934;2023-11-21T06:50:38;20.50;;;11.13;;
5175;SDS011;2607;50.934;6.934;2023-11-21T06:53:03;20.50;;;14.17;;
5175;SDS011;2607;50.934;6.934;2023-11-21T06:55:31;18.03;;;11.40;;
5175;SDS011;2607;50.934;6.934;2023-11-21T06:57:57;18.30;;;12.30;;
5175;SDS011;2607;50.934;6.934;2023-11-21T07:00:23;22.60;;;12.13;;
5175;SDS011;2607;50.934;6.934;2023-11-21T07:02:48;24.87;;;11.87;;
5175;SDS011;2607;50.934;6.934;2023-11-21T07:05:14;24.97;;;13.20;;
5175;SDS011;2607;50.934;6.934;2023-11-21T07:07:40;26.20;;;12.47;;
5175;SDS011;2607;50.934;6.934;2023-11-21T07:10:06;22.87;;;14.50;;
5175;SDS011;2607;50.934;6.934;2023-11-21T07:12:33;18.87;;;13.53;;
5175;SDS011;2607;50.934;6.934;2023-11-21T07:14:59;27.60;;;14.20;;
5175;SDS011;2607;50.934;6.934;2023-11-21T07:17:24;22.43;;;13.83;;
5175;SDS011;2607;50.934;6.934;2023-11-21T07:19:50;22.83;;;14.70;;
5175;SDS011;2607;50.934;6.934;2023-11-21T07:22:16;25.00;;;15.57;;
5175;SDS011;2607;50.934;6.934;2023-11-21T07:24:49;28.63;;;14.33;;
5175;SDS011;2607;50.934;6.934;2023-11-21T07:27:15;25.33;;;14.87;;
5175;SDS011;2607;50.934;6.934;2023-11-21T07:29:41;26.40;;;14.40;;
5175;SDS011;2607;50.934;6.934;2023-11-21T07:32:07;31.93;;;14.87;;
5175;SDS011;2607;50.934;6.934;2023-11-21T07:34:34;26.03;;;15.00;;
5175;SDS011;2607;50.934;6.934;2023-11-21T07:37:01;21.70;;;13.90;;
5175;SDS011;2607;50.934;6.934;2023-11-21T07:39:26;32.10;;;16.80;;
5175;SDS011;2607;50.934;6.934;2023-11-21T07:41:52;24.37;;;15.00;;
5175;SDS011;2607;50.934;6.934;2023-11-21T07:44:17;28.93;;;15.90;;
5175;SDS011;2607;50.934;6.934;2023-11-21T07:46:44;28.83;;;17.00;;
5175;SDS011;2607;50.934;6.934;2023-11-21T07:49:10;26.33;;;14.93;;
5175;SDS011;2607;50.934;6.934;2023-11-21T07:51:36;28.43;;;15.83;;
5175;SDS011;2607;50.934;6.934;2023-11-21T07:54:01;32.43;;;16.40;;
5175;SDS011;2607;50.934;6.934;2023-11-21T07:56:27;31.17;;;17.57;;
5175;SDS011;2607;50.934;6.934;2023-11-21T07:58:53;26.80;;;16.10;;
5175;SDS011;2607;50.934;6.934;2023-11-21T08:01:19;31.83;;;17.17;;
5175;SDS011;2607;50.934;6.934;2023-11-21T08:03:44;29.20;;;16.53;;
5175;SDS011;2607;50.934;6.934;2023-11-21T08:06:10;29.20;;;16.63;;
5175;SDS011;2607;50.934;6.934;2023-11-21T08:08:35;28.30;;;16.53;;
5175;SDS011;2607;50.934;6.934;2023-11-21T08:11:01;35.37;;;16.40;;
5175;SDS011;2607;50.934;6.934;2023-11-21T08:13:28;29.40;;;17.93;;
5175;SDS011;2607;50.934;6.934;2023-11-21T08:15:55;30.80;;;16.40;;
5175;SDS011;2607;50.934;6.934;2023-11-21T08:18:26;34.77;;;18.30;;
5175;SDS011;2607;50.934;6.934;2023-11-21T08:20:52;26.40;;;16.50;;
5175;SDS011;2607;50.934;6.934;2023-11-21T08:23:20;30.70;;;17.60;;
5175;SDS011;2607;50.934;6.934;2023-11-21T08:25:50;29.73;;;18.37;;
5175;SDS011;2607;50.934;6.934;2023-11-21T08:28:16;31.30;;;19.60;;
5175;SDS011;2607;50.934;6.934;2023-11-21T08:30:41;30.97;;;17.43;;
5175;SDS011;2607;50.934;6.934;2023-11-21T08:33:07;32.83;;;18.20;;
5175;SDS011;2607;50.934;6.934;2023-11-21T08:35:33;30.63;;;18.17;;
5175;SDS011;2607;50.934;6.934;2023-11-21T08:38:00;28.83;;;18.13;;
5175;SDS011;2607;50.934;6.934;2023-11-21T08:40:26;37.40;;;18.10;;
5175;SDS011;2607;50.934;6.934;2023-11-21T08:42:51;34.20;;;18.50;;
5175;SDS011;2607;50.934;6.934;2023-11-21T08:45:17;28.70;;;16.30;;
5175;SDS011;2607;50.934;6.934;2023-11-21T08:47:44;29.17;;;17.20;;
5175;SDS011;2607;50.934;6.934;2023-11-21T08:50:10;37.53;;;18.57;;
5175;SDS011;2607;50.934;6.934;2023-11-21T08:52:37;36.07;;;19.73;;
5175;SDS011;2607;50.934;6.934;2023-11-21T08:55:04;29.33;;;16.73;;
5175;SDS011;2607;50.934;6.934;2023-11-21T08:57:35;28.40;;;17.70;;
5175;SDS011;2607;50.934;6.934;2023-11-21T09:00:02;30.80;;;18.13;;
5175;SDS011;2607;50.934;6.934;2023-11-21T09:02:32;38.73;;;19.07;;
5175;SDS011;2607;50.934;6.934;2023-11-21T09:04:58;31.40;;;17.67;;
5175;SDS011;2607;50.934;6.934;2023-11-21T09:07:28;30.30;;;17.90;;
5175;SDS011;2607;50.934;6.934;2023-11-21T09:09:54;33.90;;;18.17;;
5175;SDS011;2607;50.934;6.934;2023-11-21T09:12:19;32.17;;;18.83;;
5175;SDS011;2607;50.934;6.934;2023-11-21T09:14:47;30.50;;;19.50;;
5175;SDS011;2607;50.934;6.934;2023-11-21T09:17:12;34.70;;;18.50;;
5175;SDS011;2607;50.934;6.934;2023-11-21T09:19:39;31.70;;;17.97;;
5175;SDS011;2607;50.934;6.934;2023-11-21T09:22:05;32.37;;;17.87;;
5175;SDS011;2607;50.934;6.934;2023-11-21T09:24:32;38.53;;;20.40;;
5175;SDS011;2607;50.934;6.934;2023-11-21T09:26:58;26.37;;;15.70;;
5175;SDS011;2607;50.934;6.934;2023-11-21T09:29:24;31.70;;;17.77;;
5175;SDS011;2607;50.934;6.934;2023-11-21T09:31:51;30.67;;;17.63;;
5175;SDS011;2607;50.934;6.934;2023-11-21T09:34:16;36.97;;;17.80;;
5175;SDS011;2607;50.934;6.934;2023-11-21T09:36:45;32.67;;;18.10;;
5175;SDS011;2607;50.934;6.934;2023-11-21T09:39:11;31.57;;;18.87;;
5175;SDS011;2607;50.934;6.934;2023-11-21T09:41:52;37.23;;;18.57;;
5175;SDS011;2607;50.934;6.934;2023-11-21T09:45:10;41.47;;;19.33;;
5175;SDS011;2607;50.934;6.934;2023-11-21T09:47:28;36.63;;;17.60;;
5175;SDS011;2607;50.934;6.934;2023-11-21T09:49:54;43.20;;;18.63;;
5175;SDS011;2607;50.934;6.934;2023-11-21T09:52:25;35.63;;;18.67;;
5175;SDS011;2607;50.934;6.934;2023-11-21T09:54:52;44.63;;;19.90;;
5175;SDS011;2607;50.934;6.934;2023-11-21T09:57:19;35.13;;;20.00;;
5175;SDS011;2607;50.934;6.934;2023-11-21T09:59:46;45.07;;;19.47;;
5175;SDS011;2607;50.934;6.934;2023-11-21T10:02:15;40.00;;;20.80;;
5175;SDS011;2607;50.934;6.934;2023-11-21T10:04:43;34.40;;;19.30;;
5175;SDS011;2607;50.934;6.934;2023-11-21T10:07:10;35.37;;;18.13;;
5175;SDS011;2607;50.934;6.934;2023-11-21T10:09:40;31.30;;;18.10;;
5175;SDS011;2607;50.934;6.934;2023-11-21T10:12:06;33.30;;;17.70;;
5175;SDS011;2607;50.934;6.934;2023-11-21T10:14:34;31.10;;;17.90;;
5175;SDS011;2607;50.934;6.934;2023-11-21T10:17:02;30.43;;;16.87;;
5175;SDS011;2607;50.934;6.934;2023-11-21T10:19:28;29.17;;;16.30;;
5175;SDS011;2607;50.934;6.934;2023-11-21T10:21:55;32.10;;;15.80;;
5175;SDS011;2607;50.934;6.934;2023-11-21T10:24:22;26.20;;;15.20;;
5175;SDS011;2607;50.934;6.934;2023-11-21T10:26:48;23.73;;;14.97;;
5175;SDS011;2607;50.934;6.934;2023-11-21T10:29:15;34.90;;;14.83;;
5175;SDS011;2607;50.934;6.934;2023-11-21T10:31:48;26.97;;;15.83;;
5175;SDS011;2607;50.934;6.934;2023-11-21T10:34:15;26.63;;;14.30;;
5175;SDS011;2607;50.934;6.934;2023-11-21T10:36:42;27.03;;;15.13;;
5175;SDS011;2607;50.934;6.934;2023-11-21T10:39:08;32.90;;;16.03;;
5175;SDS011;2607;50.934;6.934;2023-11-21T10:41:36;33.73;;;16.00;;
5175;SDS011;2607;50.934;6.934;2023-11-21T10:44:02;35.70;;;15.40;;
5175;SDS011;2607;50.934;6.934;2023-11-21T10:46:31;28.50;;;15.27;;
5175;SDS011;2607;50.934;6.934;2023-11-21T10:48:57;35.60;;;16.23;;
5175;SDS011;2607;50.934;6.934;2023-11-21T10:51:22;28.87;;;16.87;;
5175;SDS011;2607;50.934;6.934;2023-11-21T10:53:51;30.83;;;16.27;;
5175;SDS011;2607;50.934;6.934;2023-11-21T10:56:17;33.10;;;16.40;;
5175;SDS011;2607;50.934;6.934;2023-11-21T10:58:46;34.93;;;17.33;;
5175;SDS011;2607;50.934;6.934;2023-11-21T11:01:13;35.40;;;17.30;;
5175;SDS011;2607;50.934;6.934;2023-11-21T11:03:42;38.87;;;16.50;;
5175;SDS011;2607;50.934;6.934;2023-11-21T11:06:09;33.60;;;16.90;;
5175;SDS011;2607;50.934;6.934;2023-11-21T11:08:36;33.07;;;15.50;;
5175;SDS011;2607;50.934;6.934;2023-11-21T11:11:03;31.83;;;16.23;;
5175;SDS011;2607;50.934;6.934;2023-11-21T11:13:32;42.57;;;18.50;;
5175;SDS011;2607;50.934;6.934;2023-11-21T11:15:58;37.10;;;18.03;;
5175;SDS011;2607;50.934;6.934;2023-11-21T11:18:28;44.27;;;17.20;;
5175;SDS011;2607;50.934;6.934;2023-11-21T11:20:56;38.77;;;17.07;;
5175;SDS011;2607;50.934;6.934;2023-11-21T11:26:43;36.60;;;15.97;;
5175;SDS011;2607;50.934;6.934;2023-11-21T11:29:39;25.60;;;13.93;;
5175;SDS011;2607;50.934;6.934;2023-11-21T11:35:24;34.47;;;15.43;;
5175;SDS011;2607;50.934;6.934;2023-11-21T11:37:50;30.23;;;15.03;;
5175;SDS011;2607;50.934;6.934;2023-11-21T11:40:16;26.07;;;15.00;;
5175;SDS011;2607;50.934;6.934;2023-11-21T11:42:57;34.33;;;16.57;;
5175;SDS011;2607;50.934;6.934;2023-11-21T11:45:32;37.50;;;15.93;;
5175;SDS011;2607;50.934;6.934;2023-11-21T11:47:59;32.53;;;14.47;;
5175;SDS011;2607;50.934;6.934;2023-11-21T11:50:25;29.83;;;15.00;;
5175;SDS011;2607;50.934;6.934;2023-11-21T11:52:55;32.13;;;14.97;;
5175;SDS011;2607;50.934;6.934;2023-11-21T11:55:36;26.50;;;14.20;;
5175;SDS011;2607;50.934;6.934;2023-11-21T11:58:04;28.10;;;14.30;;
5175;SDS011;2607;50.934;6.934;2023-11-21T12:02:58;29.17;;;13.87;;
5175;SDS011;2607;50.934;6.934;2023-11-21T12:05:28;27.67;;;13.47;;
5175;SDS011;2607;50.934;6.934;2023-11-21T12:07:57;29.67;;;13.37;;
5175;SDS011;2607;50.934;6.934;2023-11-21T12:10:26;25.63;;;13.87;;
5175;SDS011;2607;50.934;6.934;2023-11-21T12:13:14;25.70;;;12.23;;
5175;SDS011;2607;50.934;6.934;2023-11-21T12:15:39;26.43;;;13.70;;
5175;SDS011;2607;50.934;6.934;2023-11-21T12:18:06;45.63;;;13.90;;
5175;SDS011;2607;50.934;6.934;2023-11-21T12:20:32;33.77;;;15.57;;
5175;SDS011;2607;50.934;6.934;2023-11-21T12:23:03;25.63;;;14.50;;
5175;SDS011;2607;50.934;6.934;2023-11-21T12:25:30;30.20;;;13.57;;
5175;SDS011;2607;50.934;6.934;2023-11-21T12:27:57;32.17;;;16.00;;
5175;SDS011;2607;50.934;6.934;2023-11-21T12:30:25;25.33;;;14.10;;
5175;SDS011;2607;50.934;6.934;2023-11-21T12:33:00;33.60;;;16.40;;
5175;SDS011;2607;50.934;6.934;2023-11-21T12:35:26;29.10;;;15.57;;
5175;SDS011;2607;50.934;6.934;2023-11-21T12:37:59;29.50;;;14.80;;
5175;SDS011;2607;50.934;6.934;2023-11-21T12:40:29;29.70;;;14.27;;
5175;SDS011;2607;50.934;6.934;2023-11-21T12:42:56;26.47;;;13.80;;
5175;SDS011;2607;50.934;6.934;2023-11-21T12:47:56;28.77;;;13.83;;
5175;SDS011;2607;50.934;6.934;2023-11-21T12:50:32;33.20;;;13.57;;
5175;SDS011;2607;50.934;6.934;2023-11-21T12:53:00;39.80;;;14.10;;
5175;SDS011;2607;50.934;6.934;2023-11-21T12:55:29;31.80;;;14.93;;
5175;SDS011;2607;50.934;6.934;2023-11-21T12:58:02;33.53;;;15.80;;
5175;SDS011;2607;50.934;6.934;2023-11-21T13:00:34;33.40;;;16.90;;
5175;SDS011;2607;50.934;6.934;2023-11-21T13:03:03;38.37;;;18.87;;
5175;SDS011;2607;50.934;6.934;2023-11-21T13:05:31;36.20;;;17.57;;
5175;SDS011;2607;50.934;6.934;2023-11-21T13:08:03;34.17;;;16.33;;
5175;SDS011;2607;50.934;6.934;2023-11-21T13:10:33;35.87;;;18.77;;
5175;SDS011;2607;50.934;6.934;2023-11-21T13:13:01;36.53;;;18.07;;
5175;SDS011;2607;50.934;6.934;2023-11-21T13:15:30;36.83;;;18.10;;
5175;SDS011;2607;50.934;6.934;2023-11-21T13:17:58;37.80;;;18.17;;
5175;SDS011;2607;50.934;6.934;2023-11-21T13:20:27;39.10;;;18.83;;
5175;SDS011;2607;50.934;6.934;2023-11-21T13:22:53;34.33;;;18.60;;
5175;SDS011;2607;50.934;6.934;2023-11-21T13:25:24;35.50;;;17.87;;
5175;SDS011;2607;50.934;6.934;2023-11-21T13:27:57;40.30;;;18.87;;
5175;SDS011;2607;50.934;6.934;2023-11-21T13:30:27;32.83;;;18.17;;
5175;SDS011;2607;50.934;6.934;2023-11-21T13:32:58;37.63;;;18.70;;
5175;SDS011;2607;50.934;6.934;2023-11-21T13:35:29;37.47;;;18.97;;
5175;SDS011;2607;50.934;6.934;2023-11-21T13:38:03;42.23;;;20.00;;
5175;SDS011;2607;50.934;6.934;2023-11-21T13:40:31;34.40;;;17.50;;
5175;SDS011;2607;50.934;6.934;2023-11-21T13:42:59;34.40;;;18.07;;
5175;SDS011;2607;50.934;6.934;2023-11-21T13:45:29;41.53;;;17.30;;
5175;SDS011;2607;50.934;6.934;2023-11-21T13:47:56;40.07;;;19.23;;
5175;SDS011;2607;50.934;6.934;2023-11-21T13:50:25;38.73;;;18.73;;
5175;SDS011;2607;50.934;6.934;2023-11-21T13:52:57;37.23;;;18.60;;
5175;SDS011;2607;50.934;6.934;2023-11-21T13:55:46;35.17;;;19.20;;
5175;SDS011;2607;50.934;6.934;2023-11-21T13:58:12;33.37;;;17.57;;
5175;SDS011;2607;50.934;6.934;2023-11-21T14:00:44;33.20;;;17.00;;
5175;SDS011;2607;50.934;6.934;2023-11-21T14:03:14;39.87;;;19.43;;
5175;SDS011;2607;50.934;6.934;2023-11-21T14:05:46;35.27;;;17.13;;
5175;SDS011;2607;50.934;6.934;2023-11-21T14:08:15;33.20;;;17.43;;
5175;SDS011;2607;50.934;6.934;2023-11-21T14:10:46;38.13;;;20.00;;
5175;SDS011;2607;50.934;6.934;2023-11-21T14:13:18;32.20;;;16.67;;
5175;SDS011;2607;50.934;6.934;2023-11-21T14:15:44;41.20;;;18.40;;
5175;SDS011;2607;50.934;6.934;2023-11-21T14:18:11;43.90;;;18.77;;
5175;SDS011;2607;50.934;6.934;2023-11-21T14:20:39;38.60;;;17.57;;
5175;SDS011;2607;50.934;6.934;2023-11-21T14:23:06;34.93;;;17.10;;
5175;SDS011;2607;50.934;6.934;2023-11-21T14:25:32;40.17;;;16.03;;
5175;SDS011;2607;50.934;6.934;2023-11-21T14:27:58;35.73;;;17.50;;
5175;SDS011;2607;50.934;6.934;2023-11-21T14:30:24;33.10;;;16.30;;
5175;SDS011;2607;50.934;6.934;2023-11-21T14:32:51;34.10;;;17.40;;
5175;SDS011;2607;50.934;6.934;2023-11-21T14:35:16;28.63;;;15.60;;
5175;SDS011;2607;50.934;6.934;2023-11-21T14:37:42;33.33;;;15.20;;
5175;SDS011;2607;50.934;6.934;2023-11-21T14:40:08;31.33;;;16.67;;
5175;SDS011;2607;50.934;6.934;2023-11-21T14:42:34;36.33;;;16.30;;
5175;SDS011;2607;50.934;6.934;2023-11-21T14:45:02;37.07;;;16.70;;
5175;SDS011;2607;50.934;6.934;2023-11-21T14:47:31;36.57;;;17.40;;
5175;SDS011;2607;50.934;6.934;2023-11-21T14:49:58;36.97;;;17.50;;
5175;SDS011;2607;50.934;6.934;2023-11-21T14:52:24;36.60;;;15.53;;
5175;SDS011;2607;50.934;6.934;2023-11-21T14:54:59;36.30;;;15.33;;
5175;SDS011;2607;50.934;6.934;2023-11-21T14:57:46;31.83;;;15.10;;
5175;SDS011;2607;50.934;6.934;2023-11-21T15:00:15;31.00;;;14.40;;
5175;SDS011;2607;50.934;6.934;2023-11-21T15:02:56;35.07;;;15.60;;